Time;durP1;ratioP1;P1;durP2;ratioP2;P2;SDS_P1;SDS_P2;PMS_P1;PMS_P2;Temp;Humidity;BMP_temperature;BMP_pressure;BME280_temperature;BME280_humidity;BME280_pressure;Samples;Min_cycle;Max_cycle;Signal;HPM_P1;HPM_P2
2023/11/23 00:00:27;;;;;;;;;;;;;;;;;;4166815;28;19921;-65
2023/11/23 00:02:29;;;;;;;;;;;;;;;;;;4166099;28;19921;-65
2023/11/23 00:04:31;;;;;;;;;;;;;;;;;;4165826;28;20007;-65
2023/11/23 00:06:32;;;;;;;;;;;;;;;;;;4166201;28;20362;-65
2023/11/23 00:08:34;;;;;;;;;;;;;;;;;;4171886;28;19951;-65
2023/11/23 00:10:35;;;;;;;;;;;;;;;;;;4182608;28;20318;-66
2023/11/23 00:12:37;;;;;;;;;;;;;;;;;;4182623;28;19925;-65
2023/11/23 00:14:38;;;;;;;;;;;;;;;;;;4182283;28;19925;-66
2023/11/23 00:16:43;;;;;;;;;;;;;;;;;;4182458;28;19920;-66
2023/11/23 00:18:44;;;;;;;;;;;;;;;;;;4182192;28;19920;-65
2023/11/23 00:20:46;;;;;;;;;;;;;;;;;;4182497;28;19921;-65
2023/11/23 00:22:48;;;;;;;;;;;;;;;;;;4164511;28;19929;-65
2023/11/23 00:24:49;;;;;;;;;;;;;;;;;;4178287;28;19951;-65
2023/11/23 00:26:53;;;;;;;;;;;;;;;;;;4164408;28;19971;-65
2023/11/23 00:28:55;;;;;;;;;;;;;;;;;;4182310;28;19951;-65
2023/11/23 00:30:58;;;;;;;;;;;;;;;;;;4164096;28;20023;-65
2023/11/23 00:32:59;;;;;;;;;;;;;;;;;;4182187;28;20364;-66
2023/11/23 00:35:01;;;;;;;;;;;;;;;;;;4182110;28;19921;-65
2023/11/23 00:37:02;;;;;;;;;;;;;;;;;;4182170;28;19971;-66
2023/11/23 00:39:04;;;;;;;;;;;;;;;;;;4164393;28;20373;-66
2023/11/23 00:41:06;;;;;;;;;;;;;;;;;;4178026;28;19951;-66
2023/11/23 00:43:10;;;;;;;;;;;;;;;;;;4149241;28;20328;-66
2023/11/23 00:45:14;;;;;;;;;;;;;;;;;;4149038;28;19921;-67
2023/11/23 00:47:16;;;;;;;;;;;;;;;;;;4149064;28;19925;-67
2023/11/23 00:49:19;;;;;;;;;;;;;;;;;;4149198;28;19921;-65
2023/11/23 00:51:21;;;;;;;;;;;;;;;;;;4148860;28;19926;-65
2023/11/23 00:53:22;;;;;;;;;;;;;;;;;;4132432;28;19926;-65
2023/11/23 00:55:24;;;;;;;;;;;;;;;;;;4165480;28;19921;-65
2023/11/23 00:57:25;;;;;;;;;;;;;;;;;;4165563;28;20285;-65
2023/11/23 00:59:27;;;;;;;;;;;;;;;;;;4165253;28;19979;-64
2023/11/23 01:01:28;;;;;;;;;;;;;;;;;;4174281;28;19921;-66
2023/11/23 01:03:32;;;;;;;;;;;;;;;;;;4181515;28;19933;-65
2023/11/23 01:05:34;;;;;;;;;;;;;;;;;;4181445;28;19927;-66
2023/11/23 01:07:37;;;;;;;;;;;;;;;;;;4181673;28;19928;-65
2023/11/23 01:09:38;;;;;;;;;;;;;;;;;;4181167;28;20335;-66
2023/11/23 01:11:40;;;;;;;;;;;;;;;;;;4181457;28;19932;-65
2023/11/23 01:13:41;;;;;;;;;;;;;;;;;;4181364;28;19946;-65
2023/11/23 01:15:43;;;;;;;;;;;;;;;;;;4181275;28;20381;-65
2023/11/23 01:17:44;;;;;;;;;;;;;;;;;;4181668;28;19974;-65
2023/11/23 01:19:46;;;;;;;;;;;;;;;;;;4179457;28;19956;-65
2023/11/23 01:21:47;;;;;;;;;;;;;;;;;;4165084;28;19921;-64
2023/11/23 01:23:52;;;;;;;;;;;;;;;;;;4165123;28;19928;-64
2023/11/23 01:25:54;;;;;;;;;;;;;;;;;;4181280;28;19964;-64
2023/11/23 01:27:56;;;;;;;;;;;;;;;;;;4181281;28;19979;-64
2023/11/23 01:29:57;;;;;;;;;;;;;;;;;;4163684;28;19925;-64
2023/11/23 01:31:59;;;;;;;;;;;;;;;;;;4181338;28;19951;-65
2023/11/23 01:34:01;;;;;;;;;;;;;;;;;;4181222;28;19927;-64
2023/11/23 01:36:02;;;;;;;;;;;;;;;;;;4163348;28;20059;-64
2023/11/23 01:38:04;;;;;;;;;;;;;;;;;;4159600;28;19937;-64
2023/11/23 01:40:05;;;;;;;;;;;;;;;;;;4164755;28;20015;-64
2023/11/23 01:42:07;;;;;;;;;;;;;;;;;;4164872;28;19928;-64
2023/11/23 01:44:10;;;;;;;;;;;;;;;;;;4164883;28;19921;-63
2023/11/23 01:46:11;;;;;;;;;;;;;;;;;;4164802;28;20007;-64
2023/11/23 01:48:13;;;;;;;;;;;;;;;;;;4147021;28;19925;-63
2023/11/23 01:50:14;;;;;;;;;;;;;;;;;;4164785;28;19975;-64
2023/11/23 01:52:16;;;;;;;;;;;;;;;;;;4164657;28;19979;-64
2023/11/23 01:54:18;;;;;;;;;;;;;;;;;;4164163;28;19921;-64
2023/11/23 01:56:20;;;;;;;;;;;;;;;;;;4146835;28;20455;-64
2023/11/23 01:58:22;;;;;;;;;;;;;;;;;;4163891;28;19921;-64
2023/11/23 02:00:25;;;;;;;;;;;;;;;;;;4164443;28;20323;-64
2023/11/23 02:02:26;;;;;;;;;;;;;;;;;;4164646;28;19932;-63
2023/11/23 02:04:28;;;;;;;;;;;;;;;;;;4192237;22;19921;-70
2023/11/23 02:06:29;;;;;;;;;;;;;;;;;;4180632;28;19952;-70
2023/11/23 02:08:31;;;;;;;;;;;;;;;;;;4180739;28;19920;-70
2023/11/23 02:10:32;;;;;;;;;;;;;;;;;;4181100;28;19921;-69
2023/11/23 02:12:34;;;;;;;;;;;;;;;;;;4183495;28;19921;-70
2023/11/23 02:14:36;;;;;;;;;;;;;;;;;;4184446;28;19928;-69
2023/11/23 02:16:38;;;;;;;;;;;;;;;;;;4166564;28;20295;-70
2023/11/23 02:18:39;;;;;;;;;;;;;;;;;;4184427;28;19964;-70
2023/11/23 02:20:46;;;;;;;;;;;;;;;;;;4184155;28;20363;-69
2023/11/23 02:22:48;;;;;;;;;;;;;;;;;;4184227;28;19920;-69
2023/11/23 02:24:50;;;;;;;;;;;;;;;;;;4184256;28;19920;-69
2023/11/23 02:26:51;;;;;;;;;;;;;;;;;;4184175;28;19920;-70
2023/11/23 02:28:53;;;;;;;;;;;;;;;;;;4184119;28;19928;-69
2023/11/23 02:30:54;;;;;;;;;;;;;;;;;;4184319;28;19921;-70
2023/11/23 02:32:56;;;;;;;;;;;;;;;;;;4183907;28;19931;-69
2023/11/23 02:34:58;;;;;;;;;;;;;;;;;;4183953;28;19927;-69
2023/11/23 02:36:59;;;;;;;;;;;;;;;;;;4183939;28;19921;-69
2023/11/23 02:39:00;;;;;;;;;;;;;;;;;;4183873;28;19927;-69
2023/11/23 02:41:02;;;;;;;;;;;;;;;;;;4183778;28;19927;-69
2023/11/23 02:43:04;;;;;;;;;;;;;;;;;;4165993;28;20313;-70
2023/11/23 02:45:05;;;;;;;;;;;;;;;;;;4183978;28;19939;-70
2023/11/23 02:47:07;;;;;;;;;;;;;;;;;;4183917;28;20344;-70
2023/11/23 02:49:09;;;;;;;;;;;;;;;;;;4184019;28;19927;-70
2023/11/23 02:51:10;;;;;;;;;;;;;;;;;;4167860;28;19921;-69
2023/11/23 02:53:27;;;;;;;;;;;;;;;;;;4167090;28;19956;-70
2023/11/23 02:55:28;;;;;;;;;;;;;;;;;;4167138;28;19924;-69
2023/11/23 02:57:30;;;;;;;;;;;;;;;;;;4166980;28;19936;-69
2023/11/23 02:59:31;;;;;;;;;;;;;;;;;;4167274;28;19921;-69
2023/11/23 03:01:33;;;;;;;;;;;;;;;;;;4176736;28;20364;-68
2023/11/23 03:03:35;;;;;;;;;;;;;;;;;;4183386;28;20435;-69
2023/11/23 03:05:38;;;;;;;;;;;;;;;;;;4183673;28;19929;-69
2023/11/23 03:07:40;;;;;;;;;;;;;;;;;;4183754;28;19935;-70
2023/11/23 03:09:41;;;;;;;;;;;;;;;;;;4183035;28;19943;-69
2023/11/23 03:11:43;;;;;;;;;;;;;;;;;;4182073;28;19920;-70
2023/11/23 03:13:44;;;;;;;;;;;;;;;;;;4169245;28;19928;-68
2023/11/23 03:15:46;;;;;;;;;;;;;;;;;;4166763;28;19955;-68
2023/11/23 03:17:47;;;;;;;;;;;;;;;;;;4177242;28;19951;-69
2023/11/23 03:19:49;;;;;;;;;;;;;;;;;;4183461;28;20289;-69
2023/11/23 03:21:51;;;;;;;;;;;;;;;;;;4183396;28;19944;-69
2023/11/23 03:23:53;;;;;;;;;;;;;;;;;;4183372;28;19921;-69
2023/11/23 03:25:54;;;;;;;;;;;;;;;;;;4183076;28;20007;-69
2023/11/23 03:27:56;;;;;;;;;;;;;;;;;;4183374;28;19979;-70
2023/11/23 03:29:57;;;;;;;;;;;;;;;;;;4183234;28;19955;-70
2023/11/23 03:31:59;;;;;;;;;;;;;;;;;;4183140;28;19927;-69
2023/11/23 03:34:00;;;;;;;;;;;;;;;;;;4183044;28;20331;-69
2023/11/23 03:36:01;;;;;;;;;;;;;;;;;;4183229;28;19951;-70
2023/11/23 03:38:03;;;;;;;;;;;;;;;;;;4182916;28;20360;-69
2023/11/23 03:40:04;;;;;;;;;;;;;;;;;;4182940;28;19920;-69
2023/11/23 03:42:06;;;;;;;;;;;;;;;;;;4183044;28;19928;-68
2023/11/23 03:44:07;;;;;;;;;;;;;;;;;;4183098;28;19927;-69
2023/11/23 03:46:09;;;;;;;;;;;;;;;;;;4182891;28;20276;-69
2023/11/23 03:48:10;;;;;;;;;;;;;;;;;;4182975;28;19921;-69
2023/11/23 03:50:12;;;;;;;;;;;;;;;;;;4183004;28;20357;-69
2023/11/23 03:52:14;;;;;;;;;;;;;;;;;;4164979;28;20301;-69
2023/11/23 03:54:15;;;;;;;;;;;;;;;;;;4182893;28;19928;-69
2023/11/23 03:56:18;;;;;;;;;;;;;;;;;;4182916;28;20363;-69
2023/11/23 03:58:19;;;;;;;;;;;;;;;;;;4182823;28;19921;-69
2023/11/23 04:00:21;;;;;;;;;;;;;;;;;;4182281;28;19925;-69
2023/11/23 04:02:22;;;;;;;;;;;;;;;;;;4166051;28;19921;-69
2023/11/23 04:04:24;;;;;;;;;;;;;;;;;;4165840;28;20300;-69
2023/11/23 04:06:26;;;;;;;;;;;;;;;;;;4166296;28;19925;-69
2023/11/23 04:08:27;;;;;;;;;;;;;;;;;;4170618;28;20390;-69
2023/11/23 04:10:29;;;;;;;;;;;;;;;;;;4182688;28;19971;-69
2023/11/23 04:12:30;;;;;;;;;;;;;;;;;;4164620;28;19921;-69
2023/11/23 04:14:32;;;;;;;;;;;;;;;;;;4182416;28;20372;-69
2023/11/23 04:16:33;;;;;;;;;;;;;;;;;;4182577;28;19920;-70
2023/11/23 04:18:35;;;;;;;;;;;;;;;;;;4182375;28;20452;-69
2023/11/23 04:20:37;;;;;;;;;;;;;;;;;;4182214;28;19971;-69
2023/11/23 04:22:38;;;;;;;;;;;;;;;;;;4182643;28;19925;-63
2023/11/23 04:24:40;;;;;;;;;;;;;;;;;;4189594;28;19954;-63
2023/11/23 04:26:41;;;;;;;;;;;;;;;;;;4191903;28;19928;-63
2023/11/23 04:28:43;;;;;;;;;;;;;;;;;;4182498;28;19986;-63
2023/11/23 04:30:44;;;;;;;;;;;;;;;;;;4182330;28;19925;-63
2023/11/23 04:32:46;;;;;;;;;;;;;;;;;;4182277;28;19929;-65
2023/11/23 04:34:48;;;;;;;;;;;;;;;;;;4181595;28;19990;-63
2023/11/23 04:36:49;;;;;;;;;;;;;;;;;;4182203;28;19931;-63
2023/11/23 04:38:51;;;;;;;;;;;;;;;;;;4181877;28;19924;-63
2023/11/23 04:40:52;;;;;;;;;;;;;;;;;;4181861;28;19927;-64
2023/11/23 04:42:54;;;;;;;;;;;;;;;;;;4182082;28;19928;-64
2023/11/23 04:44:55;;;;;;;;;;;;;;;;;;4182197;28;19924;-64
2023/11/23 04:46:57;;;;;;;;;;;;;;;;;;4181884;28;19967;-63
2023/11/23 04:48:58;;;;;;;;;;;;;;;;;;4181778;28;19928;-63
2023/11/23 04:51:00;;;;;;;;;;;;;;;;;;4182087;28;19924;-63
2023/11/23 04:53:01;;;;;;;;;;;;;;;;;;4181942;28;19925;-64
2023/11/23 04:55:03;;;;;;;;;;;;;;;;;;4182071;28;19954;-63
2023/11/23 04:57:04;;;;;;;;;;;;;;;;;;4181871;28;19924;-64
2023/11/23 04:59:06;;;;;;;;;;;;;;;;;;4181861;28;19928;-64
2023/11/23 05:01:07;;;;;;;;;;;;;;;;;;4163476;28;19925;-64
2023/11/23 05:03:09;;;;;;;;;;;;;;;;;;4181580;28;20399;-64
2023/11/23 05:05:14;;;;;;;;;;;;;;;;;;4181484;28;19967;-63
2023/11/23 05:07:15;;;;;;;;;;;;;;;;;;4181827;28;19921;-63
2023/11/23 05:09:17;;;;;;;;;;;;;;;;;;4181380;28;19931;-63
2023/11/23 05:11:18;;;;;;;;;;;;;;;;;;4181457;28;19964;-63
2023/11/23 05:13:20;;;;;;;;;;;;;;;;;;4180653;28;20368;-63
2023/11/23 05:15:22;;;;;;;;;;;;;;;;;;4170760;28;19983;-63
2023/11/23 05:17:23;;;;;;;;;;;;;;;;;;4171277;28;19921;-64
2023/11/23 05:19:25;;;;;;;;;;;;;;;;;;4181622;28;19920;-63
2023/11/23 05:21:36;;;;;;;;;;;;;;;;;;4163632;28;20051;-64
2023/11/23 05:23:38;;;;;;;;;;;;;;;;;;4181151;28;19986;-63
2023/11/23 05:25:39;;;;;;;;;;;;;;;;;;4181390;28;20369;-64
2023/11/23 05:27:41;;;;;;;;;;;;;;;;;;4181171;28;19971;-63
2023/11/23 05:29:43;;;;;;;;;;;;;;;;;;4181383;28;19921;-63
2023/11/23 05:31:45;;;;;;;;;;;;;;;;;;4181693;28;19920;-69
2023/11/23 05:33:46;;;;;;;;;;;;;;;;;;4181293;28;19928;-68
2023/11/23 05:35:48;;;;;;;;;;;;;;;;;;4181116;28;19924;-69
2023/11/23 05:37:49;;;;;;;;;;;;;;;;;;4180371;28;19970;-67
2023/11/23 05:39:51;;;;;;;;;;;;;;;;;;4180973;28;20311;-68
2023/11/23 05:41:53;;;;;;;;;;;;;;;;;;4180904;28;19921;-69
2023/11/23 05:43:54;;;;;;;;;;;;;;;;;;4181477;28;19967;-69
2023/11/23 05:45:56;;;;;;;;;;;;;;;;;;4180539;28;19970;-69
2023/11/23 05:47:58;;;;;;;;;;;;;;;;;;4181137;28;19974;-69
2023/11/23 05:50:01;;;;;;;;;;;;;;;;;;4181279;28;20394;-69
2023/11/23 05:52:03;;;;;;;;;;;;;;;;;;4181306;28;19967;-69
2023/11/23 05:54:04;;;;;;;;;;;;;;;;;;4181220;28;20276;-70
2023/11/23 05:56:07;;;;;;;;;;;;;;;;;;4181223;28;20372;-70
2023/11/23 05:58:09;;;;;;;;;;;;;;;;;;4180753;28;19976;-70
2023/11/23 06:00:10;;;;;;;;;;;;;;;;;;4181104;28;19921;-69
2023/11/23 06:02:12;;;;;;;;;;;;;;;;;;4180989;28;19920;-69
2023/11/23 06:04:13;;;;;;;;;;;;;;;;;;4180604;28;20418;-69
2023/11/23 06:06:15;;;;;;;;;;;;;;;;;;4181162;28;19921;-69
2023/11/23 06:08:17;;;;;;;;;;;;;;;;;;4179799;28;19928;-68
2023/11/23 06:10:18;;;;;;;;;;;;;;;;;;4181022;28;19924;-68
2023/11/23 06:12:20;;;;;;;;;;;;;;;;;;4180866;28;19921;-70
2023/11/23 06:14:21;;;;;;;;;;;;;;;;;;4179315;28;19921;-70
2023/11/23 06:16:23;;;;;;;;;;;;;;;;;;4164450;28;20016;-66
2023/11/23 06:18:24;;;;;;;;;;;;;;;;;;4164216;28;19920;-63
2023/11/23 06:20:26;;;;;;;;;;;;;;;;;;4180930;28;19940;-63
2023/11/23 06:22:27;;;;;;;;;;;;;;;;;;4180924;28;19967;-63
2023/11/23 06:24:29;;;;;;;;;;;;;;;;;;4158310;28;19929;-63
2023/11/23 06:26:30;;;;;;;;;;;;;;;;;;4170401;28;19974;-63
2023/11/23 06:28:32;;;;;;;;;;;;;;;;;;4163170;28;19932;-63
2023/11/23 06:30:35;;;;;;;;;;;;;;;;;;4180558;28;20326;-63
2023/11/23 06:32:36;;;;;;;;;;;;;;;;;;4160977;28;19932;-63
2023/11/23 06:34:38;;;;;;;;;;;;;;;;;;4175897;28;19924;-63
2023/11/23 06:36:41;;;;;;;;;;;;;;;;;;4180919;28;19920;-63
2023/11/23 06:38:46;;;;;;;;;;;;;;;;;;4179327;28;20271;-63
2023/11/23 06:40:48;;;;;;;;;;;;;;;;;;4162276;28;20023;-63
2023/11/23 06:42:49;;;;;;;;;;;;;;;;;;4162349;28;20355;-60
2023/11/23 06:44:53;;;;;;;;;;;;;;;;;;4180501;28;19921;-59
2023/11/23 06:46:54;;;;;;;;;;;;;;;;;;4180842;28;19928;-60
2023/11/23 06:48:56;;;;;;;;;;;;;;;;;;4180848;28;20226;-60
2023/11/23 06:50:57;;;;;;;;;;;;;;;;;;4180537;28;20644;-59
2023/11/23 06:52:59;;;;;;;;;;;;;;;;;;4180746;28;20514;-59
2023/11/23 06:55:01;;;;;;;;;;;;;;;;;;4180507;28;19925;-60
2023/11/23 06:57:02;;;;;;;;;;;;;;;;;;4180565;28;20384;-60
2023/11/23 06:59:04;;;;;;;;;;;;;;;;;;4167065;28;20284;-59
2023/11/23 07:01:05;;;;;;;;;;;;;;;;;;4172632;28;19920;-60
2023/11/23 07:03:07;;;;;;;;;;;;;;;;;;4183426;28;20288;-59
2023/11/23 07:05:08;;;;;;;;;;;;;;;;;;4183753;28;20023;-59
2023/11/23 07:07:10;;;;;;;;;;;;;;;;;;4183286;28;19924;-60
2023/11/23 07:09:13;;;;;;;;;;;;;;;;;;4154348;28;19925;-60
2023/11/23 07:11:17;;;;;;;;;;;;;;;;;;4167031;28;19952;-60
2023/11/23 07:13:20;;;;;;;;;;;;;;;;;;4166801;28;20020;-59
2023/11/23 07:15:24;;;;;;;;;;;;;;;;;;4172833;28;19998;-59
2023/11/23 07:17:26;;;;;;;;;;;;;;;;;;4183229;28;19974;-59
2023/11/23 07:19:28;;;;;;;;;;;;;;;;;;4183441;28;19924;-59
2023/11/23 07:21:29;;;;;;;;;;;;;;;;;;4177416;28;19925;-59
2023/11/23 07:23:31;;;;;;;;;;;;;;;;;;4199641;28;19974;-60
2023/11/23 07:25:35;;;;;;;;;;;;;;;;;;4199852;28;19920;-60
2023/11/23 07:27:37;;;;;;;;;;;;;;;;;;4189520;28;19975;-60
2023/11/23 07:29:38;;;;;;;;;;;;;;;;;;4166444;28;19924;-61
2023/11/23 07:31:40;;;;;;;;;;;;;;;;;;4176199;28;19924;-60
2023/11/23 07:33:44;;;;;;;;;;;;;;;;;;4182912;28;19920;-60
2023/11/23 07:35:48;;;;;;;;;;;;;;;;;;4183208;28;20442;-60
2023/11/23 07:37:50;;;;;;;;;;;;;;;;;;4182058;28;19921;-60
2023/11/23 07:39:51;;;;;;;;;;;;;;;;;;4182739;28;19921;-60
2023/11/23 07:41:53;;;;;;;;;;;;;;;;;;4181663;28;19927;-60
2023/11/23 07:43:57;;;;;;;;;;;;;;;;;;4182716;28;19956;-60
2023/11/23 07:45:59;;;;;;;;;;;;;;;;;;4183047;28;19932;-60
2023/11/23 07:48:08;;;;;;;;;;;;;;;;;;4148638;28;20043;-60
2023/11/23 07:50:10;;;;;;;;;;;;;;;;;;4148683;28;20454;-60
2023/11/23 07:52:12;;;;;;;;;;;;;;;;;;4183231;28;19924;-63
2023/11/23 07:54:13;;;;;;;;;;;;;;;;;;4183164;28;19998;-63
2023/11/23 07:56:15;;;;;;;;;;;;;;;;;;4182900;28;20011;-63
2023/11/23 07:58:16;;;;;;;;;;;;;;;;;;4182818;28;19924;-63
2023/11/23 08:00:18;;;;;;;;;;;;;;;;;;4182423;28;19924;-63
2023/11/23 08:02:19;;;;;;;;;;;;;;;;;;4182487;28;19924;-63
2023/11/23 08:04:21;;;;;;;;;;;;;;;;;;4182278;28;19932;-63
2023/11/23 08:06:22;;;;;;;;;;;;;;;;;;4182639;28;19921;-63
2023/11/23 08:08:24;;;;;;;;;;;;;;;;;;4164520;28;19948;-63
2023/11/23 08:10:26;;;;;;;;;;;;;;;;;;4163902;28;19925;-63
2023/11/23 08:12:27;;;;;;;;;;;;;;;;;;4182490;28;19920;-63
2023/11/23 08:14:29;;;;;;;;;;;;;;;;;;4182613;28;19939;-63
2023/11/23 08:16:30;;;;;;;;;;;;;;;;;;4182572;28;20363;-63
2023/11/23 08:18:32;;;;;;;;;;;;;;;;;;4182683;28;19921;-63
2023/11/23 08:20:41;;;;;;;;;;;;;;;;;;4187443;28;19929;-63
2023/11/23 08:22:43;;;;;;;;;;;;;;;;;;4180921;28;19925;-63
2023/11/23 08:24:44;;;;;;;;;;;;;;;;;;4174172;28;20030;-63
2023/11/23 08:26:46;;;;;;;;;;;;;;;;;;4165865;28;20008;-63
2023/11/23 08:28:49;;;;;;;;;;;;;;;;;;4164391;28;19921;-63
2023/11/23 08:30:51;;;;;;;;;;;;;;;;;;4164419;28;20401;-63
2023/11/23 08:32:52;;;;;;;;;;;;;;;;;;4182370;28;19927;-63
2023/11/23 08:34:56;;;;;;;;;;;;;;;;;;4181988;28;19920;-63
2023/11/23 08:36:57;;;;;;;;;;;;;;;;;;4182320;28;19950;-63
2023/11/23 08:39:00;;;;;;;;;;;;;;;;;;4182143;28;19924;-63
2023/11/23 08:41:02;;;;;;;;;;;;;;;;;;4181992;28;19920;-63
2023/11/23 08:43:05;;;;;;;;;;;;;;;;;;4182296;28;19927;-63
2023/11/23 08:45:07;;;;;;;;;;;;;;;;;;4182006;28;19928;-63
2023/11/23 08:47:09;;;;;;;;;;;;;;;;;;4182049;28;20206;-63
2023/11/23 08:49:12;;;;;;;;;;;;;;;;;;4182073;28;19982;-63
2023/11/23 08:51:14;;;;;;;;;;;;;;;;;;4181668;28;19924;-63
2023/11/23 08:53:16;;;;;;;;;;;;;;;;;;4163989;28;20028;-63
2023/11/23 08:55:17;;;;;;;;;;;;;;;;;;4181779;28;19924;-64
2023/11/23 08:57:19;;;;;;;;;;;;;;;;;;4181995;28;19924;-63
2023/11/23 08:59:20;;;;;;;;;;;;;;;;;;4181889;28;19931;-63
2023/11/23 09:01:23;;;;;;;;;;;;;;;;;;4181451;28;19920;-60
2023/11/23 09:03:26;;;;;;;;;;;;;;;;;;4163916;28;19921;-60
2023/11/23 09:05:28;;;;;;;;;;;;;;;;;;4181535;28;20398;-60
2023/11/23 09:07:30;;;;;;;;;;;;;;;;;;4181271;28;19974;-60
2023/11/23 09:09:31;;;;;;;;;;;;;;;;;;4181458;28;19928;-60
2023/11/23 09:11:33;;;;;;;;;;;;;;;;;;4181257;28;20356;-60
2023/11/23 09:13:35;;;;;;;;;;;;;;;;;;4181587;28;19968;-60
2023/11/23 09:15:37;;;;;;;;;;;;;;;;;;4181790;28;19931;-60
2023/11/23 09:17:38;;;;;;;;;;;;;;;;;;4181497;28;19925;-60
2023/11/23 09:19:40;;;;;;;;;;;;;;;;;;4181325;28;20318;-60
2023/11/23 09:21:42;;;;;;;;;;;;;;;;;;4194939;28;19920;-60
2023/11/23 09:23:43;;;;;;;;;;;;;;;;;;4192044;28;20011;-60
2023/11/23 09:25:45;;;;;;;;;;;;;;;;;;4181470;28;19925;-61
2023/11/23 09:27:47;;;;;;;;;;;;;;;;;;4181233;28;19925;-61
2023/11/23 09:29:49;;;;;;;;;;;;;;;;;;4181438;28;19963;-60
2023/11/23 09:31:51;;;;;;;;;;;;;;;;;;4181147;28;20398;-61
2023/11/23 09:33:53;;;;;;;;;;;;;;;;;;4181419;28;19920;-60
2023/11/23 09:35:54;;;;;;;;;;;;;;;;;;4181360;28;19932;-60
2023/11/23 09:37:58;;;;;;;;;;;;;;;;;;4163459;28;20261;-60
2023/11/23 09:40:00;;;;;;;;;;;;;;;;;;4181371;28;19926;-61
2023/11/23 09:42:03;;;;;;;;;;;;;;;;;;4181153;28;19920;-61
2023/11/23 09:44:05;;;;;;;;;;;;;;;;;;4163685;28;20277;-61
2023/11/23 09:46:07;;;;;;;;;;;;;;;;;;4163215;28;19931;-61
2023/11/23 09:48:09;;;;;;;;;;;;;;;;;;4181311;28;19921;-61
2023/11/23 09:50:10;;;;;;;;;;;;;;;;;;4180985;28;19935;-61
2023/11/23 09:52:12;;;;;;;;;;;;;;;;;;4181142;28;19928;-61
2023/11/23 09:54:14;;;;;;;;;;;;;;;;;;4181214;28;19931;-61
2023/11/23 09:56:18;;;;;;;;;;;;;;;;;;4181121;28;19966;-61
2023/11/23 09:58:21;;;;;;;;;;;;;;;;;;4181015;28;19971;-61
2023/11/23 10:00:23;;;;;;;;;;;;;;;;;;4163239;28;20340;-61
2023/11/23 10:02:24;;;;;;;;;;;;;;;;;;4181155;28;19959;-61
2023/11/23 10:04:26;;;;;;;;;;;;;;;;;;4180608;28;19921;-61
2023/11/23 10:06:28;;;;;;;;;;;;;;;;;;4181096;28;19921;-61
2023/11/23 10:08:30;;;;;;;;;;;;;;;;;;4180553;28;19935;-61
2023/11/23 10:10:34;;;;;;;;;;;;;;;;;;4180985;28;19920;-61
2023/11/23 10:12:35;;;;;;;;;;;;;;;;;;4181366;28;20365;-61
2023/11/23 10:14:39;;;;;;;;;;;;;;;;;;4180843;28;20039;-61
2023/11/23 10:16:41;;;;;;;;;;;;;;;;;;4180956;28;19934;-61
2023/11/23 10:18:42;;;;;;;;;;;;;;;;;;4180718;28;19921;-61
2023/11/23 10:20:44;;;;;;;;;;;;;;;;;;4180991;28;20001;-61
2023/11/23 10:22:45;;;;;;;;;;;;;;;;;;4181083;28;19952;-61
2023/11/23 10:24:48;;;;;;;;;;;;;;;;;;4180974;28;19925;-61
2023/11/23 10:26:49;;;;;;;;;;;;;;;;;;4180749;28;19925;-62
2023/11/23 10:28:51;;;;;;;;;;;;;;;;;;4180860;28;19979;-62
2023/11/23 10:30:54;;;;;;;;;;;;;;;;;;4180681;28;19925;-62
2023/11/23 10:32:56;;;;;;;;;;;;;;;;;;4182285;28;20402;-61
2023/11/23 10:34:58;;;;;;;;;;;;;;;;;;4183884;28;19920;-62
2023/11/23 10:36:59;;;;;;;;;;;;;;;;;;4184163;28;19925;-61
2023/11/23 10:39:01;;;;;;;;;;;;;;;;;;4184358;28;19925;-61
2023/11/23 10:41:03;;;;;;;;;;;;;;;;;;4183899;28;19928;-61
2023/11/23 10:43:04;;;;;;;;;;;;;;;;;;4183943;28;20004;-61
2023/11/23 10:45:06;;;;;;;;;;;;;;;;;;4183964;28;19921;-61
2023/11/23 10:47:10;;;;;;;;;;;;;;;;;;4184069;28;19924;-62
2023/11/23 10:49:12;;;;;;;;;;;;;;;;;;4174625;28;19924;-61
2023/11/23 10:51:13;;;;;;;;;;;;;;;;;;4173534;28;19925;-61
2023/11/23 10:53:15;;;;;;;;;;;;;;;;;;4170820;28;19974;-62
2023/11/23 10:55:17;;;;;;;;;;;;;;;;;;4170571;28;19921;-62
2023/11/23 10:57:18;;;;;;;;;;;;;;;;;;4178428;28;19924;-63
2023/11/23 10:59:21;;;;;;;;;;;;;;;;;;4173551;28;19940;-61
2023/11/23 11:01:22;;;;;;;;;;;;;;;;;;4178386;28;20273;-61
2023/11/23 11:03:24;;;;;;;;;;;;;;;;;;4158465;28;19967;-62
2023/11/23 11:05:28;;;;;;;;;;;;;;;;;;4176731;28;19921;-62
2023/11/23 11:07:30;;;;;;;;;;;;;;;;;;4183634;28;20019;-61
2023/11/23 11:09:31;;;;;;;;;;;;;;;;;;4165742;28;19924;-61
2023/11/23 11:11:33;;;;;;;;;;;;;;;;;;4182308;28;20364;-62
2023/11/23 11:13:35;;;;;;;;;;;;;;;;;;4172313;28;19921;-61
2023/11/23 11:15:38;;;;;;;;;;;;;;;;;;4173931;28;20373;-61
2023/11/23 11:17:39;;;;;;;;;;;;;;;;;;4180678;28;19928;-62
2023/11/23 11:19:43;;;;;;;;;;;;;;;;;;4175273;28;20376;-61
2023/11/23 11:21:46;;;;;;;;;;;;;;;;;;4181812;28;19929;-62
2023/11/23 11:23:50;;;;;;;;;;;;;;;;;;4166825;28;19921;-61
2023/11/23 11:25:51;;;;;;;;;;;;;;;;;;4169226;28;19930;-61
2023/11/23 11:27:53;;;;;;;;;;;;;;;;;;4179094;28;19971;-61
2023/11/23 11:29:55;;;;;;;;;;;;;;;;;;4165687;28;19921;-61
2023/11/23 11:31:57;;;;;;;;;;;;;;;;;;4165135;28;19927;-62
2023/11/23 11:33:59;;;;;;;;;;;;;;;;;;4183100;28;19921;-61
2023/11/23 11:36:00;;;;;;;;;;;;;;;;;;4176589;28;19921;-61
2023/11/23 11:38:02;;;;;;;;;;;;;;;;;;4166924;28;19925;-61
2023/11/23 11:40:05;;;;;;;;;;;;;;;;;;4180660;28;19924;-61
2023/11/23 11:42:07;;;;;;;;;;;;;;;;;;4180852;28;19921;-61
2023/11/23 11:44:10;;;;;;;;;;;;;;;;;;4177903;28;20020;-62
2023/11/23 11:46:12;;;;;;;;;;;;;;;;;;4173169;28;19932;-61
2023/11/23 11:48:13;;;;;;;;;;;;;;;;;;4169557;28;19920;-61
2023/11/23 11:50:15;;;;;;;;;;;;;;;;;;4177002;28;19966;-61
2023/11/23 11:52:16;;;;;;;;;;;;;;;;;;4163228;28;19925;-61
2023/11/23 11:54:18;;;;;;;;;;;;;;;;;;4172971;28;19921;-62
2023/11/23 11:56:19;;;;;;;;;;;;;;;;;;4171046;28;19929;-61
2023/11/23 11:58:21;;;;;;;;;;;;;;;;;;4159160;28;19925;-63
2023/11/23 12:00:22;;;;;;;;;;;;;;;;;;4170813;28;19921;-61
2023/11/23 12:02:24;;;;;;;;;;;;;;;;;;4169322;28;19925;-61
2023/11/23 12:04:26;;;;;;;;;;;;;;;;;;4175139;28;20008;-61
2023/11/23 12:06:28;;;;;;;;;;;;;;;;;;4154688;28;20318;-61
2023/11/23 12:08:29;;;;;;;;;;;;;;;;;;4172206;28;19975;-62
2023/11/23 12:10:31;;;;;;;;;;;;;;;;;;4180544;28;19927;-61
2023/11/23 12:12:33;;;;;;;;;;;;;;;;;;4172902;28;19921;-61
2023/11/23 12:14:35;;;;;;;;;;;;;;;;;;4174461;28;20039;-61
2023/11/23 12:16:36;;;;;;;;;;;;;;;;;;4171915;28;20338;-61
2023/11/23 12:18:39;;;;;;;;;;;;;;;;;;4174653;28;19925;-61
2023/11/23 12:20:41;;;;;;;;;;;;;;;;;;4180330;28;19924;-61
2023/11/23 12:22:44;;;;;;;;;;;;;;;;;;4174039;28;19931;-61
2023/11/23 12:24:45;;;;;;;;;;;;;;;;;;4180278;28;19921;-62
2023/11/23 12:26:49;;;;;;;;;;;;;;;;;;4182689;28;19967;-61
2023/11/23 12:28:50;;;;;;;;;;;;;;;;;;4177945;28;19920;-61
2023/11/23 12:30:52;;;;;;;;;;;;;;;;;;4180216;28;19939;-60
2023/11/23 12:32:53;;;;;;;;;;;;;;;;;;4182208;28;19920;-64
2023/11/23 12:34:55;;;;;;;;;;;;;;;;;;4182145;28;20414;-64
2023/11/23 12:37:00;;;;;;;;;;;;;;;;;;4182290;28;19924;-64
2023/11/23 12:39:01;;;;;;;;;;;;;;;;;;4179047;28;19925;-64
2023/11/23 12:41:03;;;;;;;;;;;;;;;;;;4176830;28;19921;-65
2023/11/23 12:43:04;;;;;;;;;;;;;;;;;;4165637;28;19921;-64
2023/11/23 12:45:08;;;;;;;;;;;;;;;;;;4172439;28;19959;-64
2023/11/23 12:47:10;;;;;;;;;;;;;;;;;;4176416;28;20334;-64
2023/11/23 12:49:11;;;;;;;;;;;;;;;;;;4170294;28;19924;-64
2023/11/23 12:51:13;;;;;;;;;;;;;;;;;;4180162;28;19921;-63
2023/11/23 12:53:15;;;;;;;;;;;;;;;;;;4162495;28;19925;-64
2023/11/23 12:55:18;;;;;;;;;;;;;;;;;;4178215;28;20260;-64
2023/11/23 12:57:19;;;;;;;;;;;;;;;;;;4169778;28;19974;-63
2023/11/23 12:59:21;;;;;;;;;;;;;;;;;;4165219;28;19968;-64
2023/11/23 13:01:23;;;;;;;;;;;;;;;;;;4175875;28;19933;-64
2023/11/23 13:03:24;;;;;;;;;;;;;;;;;;4168892;28;19971;-64
2023/11/23 13:05:26;;;;;;;;;;;;;;;;;;4165569;28;19929;-64
2023/11/23 13:07:28;;;;;;;;;;;;;;;;;;4175495;28;19975;-64
2023/11/23 13:09:29;;;;;;;;;;;;;;;;;;4181086;28;19931;-64
2023/11/23 13:11:32;;;;;;;;;;;;;;;;;;4181532;28;20303;-64
2023/11/23 13:13:34;;;;;;;;;;;;;;;;;;4168688;28;19921;-64
2023/11/23 13:15:35;;;;;;;;;;;;;;;;;;4165215;28;19921;-64
2023/11/23 13:17:37;;;;;;;;;;;;;;;;;;4165007;28;19961;-63
2023/11/23 13:19:38;;;;;;;;;;;;;;;;;;4164852;28;20307;-64
2023/11/23 13:21:44;;;;;;;;;;;;;;;;;;4171378;28;19991;-65
2023/11/23 13:23:48;;;;;;;;;;;;;;;;;;4176664;28;19928;-64
2023/11/23 13:25:49;;;;;;;;;;;;;;;;;;4179643;28;20569;-64
2023/11/23 13:27:56;;;;;;;;;;;;;;;;;;4175393;28;20288;-64
2023/11/23 13:29:58;;;;;;;;;;;;;;;;;;4165051;28;20270;-64
2023/11/23 13:32:00;;;;;;;;;;;;;;;;;;4174392;28;19921;-64
2023/11/23 13:34:01;;;;;;;;;;;;;;;;;;4181532;28;19924;-64
2023/11/23 13:36:03;;;;;;;;;;;;;;;;;;4181374;28;19921;-64
2023/11/23 13:38:05;;;;;;;;;;;;;;;;;;4180579;28;19921;-64
2023/11/23 13:40:07;;;;;;;;;;;;;;;;;;4175334;28;20369;-66
2023/11/23 13:42:09;;;;;;;;;;;;;;;;;;4181207;28;19920;-65
2023/11/23 13:44:10;;;;;;;;;;;;;;;;;;4181510;28;19964;-61
2023/11/23 13:46:14;;;;;;;;;;;;;;;;;;4174898;28;19931;-61
2023/11/23 13:48:16;;;;;;;;;;;;;;;;;;4173230;28;20380;-61
2023/11/23 13:50:18;;;;;;;;;;;;;;;;;;4180041;28;19925;-62
2023/11/23 13:52:20;;;;;;;;;;;;;;;;;;4177958;28;19974;-61